sensor_id;sensor_type;location;lat;lon;timestamp;P1;durP1;ratioP1;P2;durP2;ratioP2
12218;SDS011;6172;42.646;23.344;2023-01-15T00:02:03;15.43;;;9.43;;
12218;SDS011;6172;42.646;23.344;2023-01-15T00:04:30;15.83;;;8.67;;
12218;SDS011;6172;42.646;23.344;2023-01-15T00:06:57;14.63;;;8.70;;
12218;SDS011;6172;42.646;23.344;2023-01-15T00:09:24;16.90;;;9.17;;
12218;SDS011;6172;42.646;23.344;2023-01-15T00:11:53;15.57;;;8.73;;
12218;SDS011;6172;42.646;23.344;2023-01-15T00:14:20;15.57;;;9.17;;
12218;SDS011;6172;42.646;23.344;2023-01-15T00:16:49;18.77;;;8.93;;
12218;SDS011;6172;42.646;23.344;2023-01-15T00:19:16;14.83;;;9.23;;
12218;SDS011;6172;42.646;23.344;2023-01-15T00:21:43;16.10;;;9.20;;
12218;SDS011;6172;42.646;23.344;2023-01-15T00:24:10;15.53;;;8.87;;
12218;SDS011;6172;42.646;23.344;2023-01-15T00:26:56;16.27;;;9.47;;
12218;SDS011;6172;42.646;23.344;2023-01-15T00:29:40;15.63;;;9.50;;
12218;SDS011;6172;42.646;23.344;2023-01-15T00:32:08;19.77;;;10.63;;
12218;SDS011;6172;42.646;23.344;2023-01-15T00:34:35;19.63;;;10.57;;
12218;SDS011;6172;42.646;23.344;2023-01-15T00:37:04;20.57;;;11.00;;
12218;SDS011;6172;42.646;23.344;2023-01-15T00:39:31;19.63;;;9.90;;
12218;SDS011;6172;42.646;23.344;2023-01-15T00:42:01;16.63;;;9.97;;
12218;SDS011;6172;42.646;23.344;2023-01-15T00:44:29;20.67;;;10.97;;
12218;SDS011;6172;42.646;23.344;2023-01-15T00:46:57;20.00;;;11.40;;
12218;SDS011;6172;42.646;23.344;2023-01-15T00:49:24;19.20;;;10.67;;
12218;SDS011;6172;42.646;23.344;2023-01-15T00:51:51;20.13;;;10.33;;
12218;SDS011;6172;42.646;23.344;2023-01-15T00:54:18;18.17;;;9.67;;
12218;SDS011;6172;42.646;23.344;2023-01-15T00:56:45;18.60;;;11.20;;
12218;SDS011;6172;42.646;23.344;2023-01-15T00:59:15;17.87;;;10.33;;
12218;SDS011;6172;42.646;23.344;2023-01-15T01:01:42;20.67;;;11.00;;
12218;SDS011;6172;42.646;23.344;2023-01-15T01:04:09;20.33;;;11.50;;
12218;SDS011;6172;42.646;23.344;2023-01-15T01:06:36;22.17;;;11.83;;
12218;SDS011;6172;42.646;23.344;2023-01-15T01:09:03;20.03;;;10.97;;
12218;SDS011;6172;42.646;23.344;2023-01-15T01:11:31;20.20;;;11.73;;
12218;SDS011;6172;42.646;23.344;2023-01-15T01:14:00;21.43;;;11.20;;
12218;SDS011;6172;42.646;23.344;2023-01-15T01:16:33;20.10;;;11.10;;
12218;SDS011;6172;42.646;23.344;2023-01-15T01:19:03;22.13;;;11.40;;
12218;SDS011;6172;42.646;23.344;2023-01-15T01:21:31;18.70;;;10.70;;
12218;SDS011;6172;42.646;23.344;2023-01-15T01:23:59;18.43;;;10.53;;
12218;SDS011;6172;42.646;23.344;2023-01-15T01:26:26;22.37;;;10.77;;
12218;SDS011;6172;42.646;23.344;2023-01-15T01:28:54;20.90;;;10.77;;
12218;SDS011;6172;42.646;23.344;2023-01-15T01:31:22;19.60;;;11.10;;
12218;SDS011;6172;42.646;23.344;2023-01-15T01:33:51;18.97;;;10.97;;
12218;SDS011;6172;42.646;23.344;2023-01-15T01:36:21;21.40;;;11.30;;
12218;SDS011;6172;42.646;23.344;2023-01-15T01:41:26;21.03;;;11.77;;
12218;SDS011;6172;42.646;23.344;2023-01-15T01:43:56;19.43;;;11.33;;
12218;SDS011;6172;42.646;23.344;2023-01-15T01:46:25;18.30;;;10.43;;
12218;SDS011;6172;42.646;23.344;2023-01-15T01:48:55;20.63;;;10.70;;
12218;SDS011;6172;42.646;23.344;2023-01-15T01:51:26;21.97;;;10.83;;
12218;SDS011;6172;42.646;23.344;2023-01-15T01:53:56;20.80;;;11.07;;
12218;SDS011;6172;42.646;23.344;2023-01-15T01:56:25;19.27;;;11.00;;
12218;SDS011;6172;42.646;23.344;2023-01-15T01:58:53;20.87;;;11.33;;
12218;SDS011;6172;42.646;23.344;2023-01-15T02:01:21;22.03;;;11.77;;
12218;SDS011;6172;42.646;23.344;2023-01-15T02:03:50;18.60;;;10.97;;
12218;SDS011;6172;42.646;23.344;2023-01-15T02:06:21;21.37;;;11.20;;
12218;SDS011;6172;42.646;23.344;2023-01-15T02:08:53;21.63;;;11.47;;
12218;SDS011;6172;42.646;23.344;2023-01-15T02:11:21;22.03;;;11.47;;
12218;SDS011;6172;42.646;23.344;2023-01-15T02:13:52;19.73;;;11.33;;
12218;SDS011;6172;42.646;23.344;2023-01-15T02:16:25;19.30;;;10.93;;
12218;SDS011;6172;42.646;23.344;2023-01-15T02:18:59;21.93;;;11.33;;
12218;SDS011;6172;42.646;23.344;2023-01-15T02:21:41;21.33;;;11.40;;
12218;SDS011;6172;42.646;23.344;2023-01-15T02:24:16;20.73;;;11.90;;
12218;SDS011;6172;42.646;23.344;2023-01-15T02:27:09;24.47;;;12.90;;
12218;SDS011;6172;42.646;23.344;2023-01-15T02:32:31;25.70;;;12.00;;
12218;SDS011;6172;42.646;23.344;2023-01-15T02:35:05;20.23;;;11.23;;
12218;SDS011;6172;42.646;23.344;2023-01-15T02:37:38;21.53;;;11.67;;
12218;SDS011;6172;42.646;23.344;2023-01-15T02:40:09;25.00;;;11.47;;
12218;SDS011;6172;42.646;23.344;2023-01-15T02:42:39;19.27;;;11.10;;
12218;SDS011;6172;42.646;23.344;2023-01-15T02:45:09;22.57;;;12.10;;
12218;SDS011;6172;42.646;23.344;2023-01-15T02:47:39;20.50;;;11.23;;
12218;SDS011;6172;42.646;23.344;2023-01-15T02:50:10;19.97;;;11.10;;
12218;SDS011;6172;42.646;23.344;2023-01-15T02:52:41;22.70;;;12.23;;
12218;SDS011;6172;42.646;23.344;2023-01-15T02:55:13;22.20;;;11.27;;
12218;SDS011;6172;42.646;23.344;2023-01-15T02:57:47;19.00;;;11.60;;
12218;SDS011;6172;42.646;23.344;2023-01-15T03:00:18;22.00;;;11.87;;
12218;SDS011;6172;42.646;23.344;2023-01-15T03:02:52;20.83;;;11.50;;
12218;SDS011;6172;42.646;23.344;2023-01-15T03:05:25;22.07;;;11.47;;
12218;SDS011;6172;42.646;23.344;2023-01-15T03:07:58;22.17;;;10.93;;
12218;SDS011;6172;42.646;23.344;2023-01-15T03:10:29;21.73;;;11.67;;
12218;SDS011;6172;42.646;23.344;2023-01-15T03:13:05;24.20;;;12.00;;
12218;SDS011;6172;42.646;23.344;2023-01-15T03:15:42;20.83;;;12.13;;
12218;SDS011;6172;42.646;23.344;2023-01-15T03:18:35;18.60;;;10.73;;
12218;SDS011;6172;42.646;23.344;2023-01-15T03:21:08;20.53;;;11.27;;
12218;SDS011;6172;42.646;23.344;2023-01-15T03:23:40;20.70;;;11.37;;
12218;SDS011;6172;42.646;23.344;2023-01-15T03:26:12;19.00;;;11.37;;
12218;SDS011;6172;42.646;23.344;2023-01-15T03:28:41;23.70;;;11.20;;
12218;SDS011;6172;42.646;23.344;2023-01-15T03:31:10;20.33;;;11.40;;
12218;SDS011;6172;42.646;23.344;2023-01-15T03:33:38;24.30;;;11.53;;
12218;SDS011;6172;42.646;23.344;2023-01-15T03:36:05;21.37;;;11.57;;
12218;SDS011;6172;42.646;23.344;2023-01-15T03:38:35;19.33;;;11.13;;
12218;SDS011;6172;42.646;23.344;2023-01-15T03:41:06;22.53;;;11.70;;
12218;SDS011;6172;42.646;23.344;2023-01-15T03:44:00;21.67;;;11.50;;
12218;SDS011;6172;42.646;23.344;2023-01-15T03:46:38;23.23;;;11.43;;
12218;SDS011;6172;42.646;23.344;2023-01-15T03:49:17;24.77;;;11.87;;
12218;SDS011;6172;42.646;23.344;2023-01-15T03:51:53;24.30;;;12.73;;
12218;SDS011;6172;42.646;23.344;2023-01-15T03:54:29;21.03;;;11.60;;
12218;SDS011;6172;42.646;23.344;2023-01-15T03:57:05;20.07;;;11.33;;
12218;SDS011;6172;42.646;23.344;2023-01-15T03:59:42;23.67;;;11.87;;
12218;SDS011;6172;42.646;23.344;2023-01-15T04:02:14;22.30;;;11.13;;
12218;SDS011;6172;42.646;23.344;2023-01-15T04:04:44;24.00;;;11.47;;
12218;SDS011;6172;42.646;23.344;2023-01-15T04:07:12;20.60;;;12.27;;
12218;SDS011;6172;42.646;23.344;2023-01-15T04:09:40;22.57;;;11.90;;
12218;SDS011;6172;42.646;23.344;2023-01-15T04:12:09;22.20;;;12.60;;
12218;SDS011;6172;42.646;23.344;2023-01-15T04:14:36;24.30;;;11.67;;
12218;SDS011;6172;42.646;23.344;2023-01-15T04:17:05;20.30;;;10.63;;
12218;SDS011;6172;42.646;23.344;2023-01-15T04:19:32;21.97;;;11.83;;
12218;SDS011;6172;42.646;23.344;2023-01-15T04:21:59;21.07;;;11.43;;
12218;SDS011;6172;42.646;23.344;2023-01-15T04:24:26;18.80;;;10.33;;
12218;SDS011;6172;42.646;23.344;2023-01-15T04:26:54;23.07;;;11.27;;
12218;SDS011;6172;42.646;23.344;2023-01-15T04:29:21;21.37;;;11.73;;
12218;SDS011;6172;42.646;23.344;2023-01-15T04:31:48;21.23;;;11.53;;
12218;SDS011;6172;42.646;23.344;2023-01-15T04:34:23;18.10;;;10.80;;
12218;SDS011;6172;42.646;23.344;2023-01-15T04:36:51;21.47;;;11.80;;
12218;SDS011;6172;42.646;23.344;2023-01-15T04:39:19;21.23;;;10.67;;
12218;SDS011;6172;42.646;23.344;2023-01-15T04:41:46;20.87;;;11.50;;
12218;SDS011;6172;42.646;23.344;2023-01-15T04:44:36;22.80;;;11.40;;
12218;SDS011;6172;42.646;23.344;2023-01-15T04:47:03;22.83;;;11.40;;
12218;SDS011;6172;42.646;23.344;2023-01-15T04:49:33;20.57;;;10.47;;
12218;SDS011;6172;42.646;23.344;2023-01-15T04:52:00;19.73;;;10.63;;
12218;SDS011;6172;42.646;23.344;2023-01-15T04:54:27;19.67;;;10.53;;
12218;SDS011;6172;42.646;23.344;2023-01-15T04:56:54;19.77;;;10.27;;
12218;SDS011;6172;42.646;23.344;2023-01-15T04:59:22;19.63;;;10.93;;
12218;SDS011;6172;42.646;23.344;2023-01-15T05:01:51;22.10;;;11.17;;
12218;SDS011;6172;42.646;23.344;2023-01-15T05:04:18;23.27;;;11.90;;
12218;SDS011;6172;42.646;23.344;2023-01-15T05:06:46;22.43;;;11.50;;
12218;SDS011;6172;42.646;23.344;2023-01-15T05:09:13;20.17;;;11.30;;
12218;SDS011;6172;42.646;23.344;2023-01-15T05:11:40;18.40;;;9.93;;
12218;SDS011;6172;42.646;23.344;2023-01-15T05:14:07;18.57;;;10.40;;
12218;SDS011;6172;42.646;23.344;2023-01-15T05:16:35;19.70;;;10.90;;
12218;SDS011;6172;42.646;23.344;2023-01-15T05:19:03;20.20;;;10.73;;
12218;SDS011;6172;42.646;23.344;2023-01-15T05:21:32;22.20;;;12.13;;
12218;SDS011;6172;42.646;23.344;2023-01-15T05:24:02;21.07;;;11.03;;
12218;SDS011;6172;42.646;23.344;2023-01-15T05:26:33;18.23;;;10.53;;
12218;SDS011;6172;42.646;23.344;2023-01-15T05:29:01;20.80;;;11.03;;
12218;SDS011;6172;42.646;23.344;2023-01-15T05:31:28;18.67;;;10.73;;
12218;SDS011;6172;42.646;23.344;2023-01-15T05:33:58;22.87;;;11.97;;
12218;SDS011;6172;42.646;23.344;2023-01-15T05:36:26;23.83;;;12.20;;
12218;SDS011;6172;42.646;23.344;2023-01-15T05:38:54;26.37;;;13.00;;
12218;SDS011;6172;42.646;23.344;2023-01-15T05:41:27;27.97;;;14.07;;
12218;SDS011;6172;42.646;23.344;2023-01-15T05:44:13;23.47;;;13.17;;
12218;SDS011;6172;42.646;23.344;2023-01-15T05:46:48;24.20;;;13.00;;
12218;SDS011;6172;42.646;23.344;2023-01-15T05:49:17;25.57;;;12.73;;
12218;SDS011;6172;42.646;23.344;2023-01-15T05:51:46;29.13;;;13.20;;
12218;SDS011;6172;42.646;23.344;2023-01-15T05:54:13;25.80;;;13.07;;
12218;SDS011;6172;42.646;23.344;2023-01-15T05:56:45;30.57;;;14.37;;
12218;SDS011;6172;42.646;23.344;2023-01-15T05:59:13;28.50;;;14.63;;
12218;SDS011;6172;42.646;23.344;2023-01-15T06:01:40;26.57;;;14.57;;
12218;SDS011;6172;42.646;23.344;2023-01-15T06:04:08;26.03;;;13.87;;
12218;SDS011;6172;42.646;23.344;2023-01-15T06:06:38;36.33;;;15.10;;
12218;SDS011;6172;42.646;23.344;2023-01-15T06:09:07;27.67;;;13.93;;
12218;SDS011;6172;42.646;23.344;2023-01-15T06:11:34;29.50;;;14.33;;
12218;SDS011;6172;42.646;23.344;2023-01-15T06:14:02;26.17;;;13.30;;
12218;SDS011;6172;42.646;23.344;2023-01-15T06:16:29;29.37;;;13.10;;
12218;SDS011;6172;42.646;23.344;2023-01-15T06:18:59;27.23;;;12.47;;
12218;SDS011;6172;42.646;23.344;2023-01-15T06:21:26;26.97;;;14.20;;
12218;SDS011;6172;42.646;23.344;2023-01-15T06:23:53;22.23;;;12.60;;
12218;SDS011;6172;42.646;23.344;2023-01-15T06:26:22;32.90;;;12.67;;
12218;SDS011;6172;42.646;23.344;2023-01-15T06:28:49;23.53;;;11.93;;
12218;SDS011;6172;42.646;23.344;2023-01-15T06:31:18;25.90;;;12.90;;
12218;SDS011;6172;42.646;23.344;2023-01-15T06:33:46;22.87;;;11.87;;
12218;SDS011;6172;42.646;23.344;2023-01-15T06:36:14;20.67;;;10.90;;
12218;SDS011;6172;42.646;23.344;2023-01-15T06:38:42;20.80;;;10.63;;
12218;SDS011;6172;42.646;23.344;2023-01-15T06:41:11;19.73;;;11.20;;
12218;SDS011;6172;42.646;23.344;2023-01-15T06:43:58;21.47;;;11.00;;
12218;SDS011;6172;42.646;23.344;2023-01-15T06:46:49;19.23;;;11.30;;
12218;SDS011;6172;42.646;23.344;2023-01-15T06:49:34;22.33;;;10.77;;
12218;SDS011;6172;42.646;23.344;2023-01-15T06:52:04;21.30;;;10.80;;
12218;SDS011;6172;42.646;23.344;2023-01-15T06:54:32;20.43;;;10.50;;
12218;SDS011;6172;42.646;23.344;2023-01-15T06:57:03;20.93;;;11.57;;
12218;SDS011;6172;42.646;23.344;2023-01-15T06:59:30;21.47;;;11.50;;
12218;SDS011;6172;42.646;23.344;2023-01-15T07:01:59;23.87;;;11.40;;
12218;SDS011;6172;42.646;23.344;2023-01-15T07:04:27;20.47;;;11.97;;
12218;SDS011;6172;42.646;23.344;2023-01-15T07:06:54;25.57;;;11.63;;
12218;SDS011;6172;42.646;23.344;2023-01-15T07:09:21;22.77;;;12.47;;
12218;SDS011;6172;42.646;23.344;2023-01-15T07:11:48;27.00;;;11.30;;
12218;SDS011;6172;42.646;23.344;2023-01-15T07:14:16;20.80;;;10.77;;
12218;SDS011;6172;42.646;23.344;2023-01-15T07:16:44;25.67;;;12.30;;
12218;SDS011;6172;42.646;23.344;2023-01-15T07:19:14;23.27;;;11.43;;
12218;SDS011;6172;42.646;23.344;2023-01-15T07:21:43;18.93;;;10.90;;
12218;SDS011;6172;42.646;23.344;2023-01-15T07:24:10;17.43;;;10.13;;
12218;SDS011;6172;42.646;23.344;2023-01-15T07:26:40;22.47;;;10.73;;
12218;SDS011;6172;42.646;23.344;2023-01-15T07:29:09;23.67;;;11.17;;
12218;SDS011;6172;42.646;23.344;2023-01-15T07:31:36;21.00;;;10.93;;
12218;SDS011;6172;42.646;23.344;2023-01-15T07:34:04;21.73;;;10.57;;
12218;SDS011;6172;42.646;23.344;2023-01-15T07:36:33;20.70;;;10.47;;
12218;SDS011;6172;42.646;23.344;2023-01-15T07:39:01;21.47;;;11.27;;
12218;SDS011;6172;42.646;23.344;2023-01-15T07:41:30;17.77;;;10.13;;
12218;SDS011;6172;42.646;23.344;2023-01-15T07:44:15;20.67;;;10.63;;
12218;SDS011;6172;42.646;23.344;2023-01-15T07:46:59;16.23;;;9.80;;
12218;SDS011;6172;42.646;23.344;2023-01-15T07:49:44;16.40;;;9.23;;
12218;SDS011;6172;42.646;23.344;2023-01-15T07:52:16;20.60;;;10.57;;
12218;SDS011;6172;42.646;23.344;2023-01-15T07:54:45;18.40;;;10.20;;
12218;SDS011;6172;42.646;23.344;2023-01-15T07:57:13;15.20;;;9.40;;
12218;SDS011;6172;42.646;23.344;2023-01-15T07:59:47;14.10;;;8.53;;
12218;SDS011;6172;42.646;23.344;2023-01-15T08:02:14;13.63;;;7.70;;
12218;SDS011;6172;42.646;23.344;2023-01-15T08:04:41;13.37;;;7.80;;
12218;SDS011;6172;42.646;23.344;2023-01-15T08:07:08;16.50;;;9.00;;
12218;SDS011;6172;42.646;23.344;2023-01-15T08:09:39;13.37;;;7.90;;
12218;SDS011;6172;42.646;23.344;2023-01-15T08:12:06;12.87;;;7.07;;
12218;SDS011;6172;42.646;23.344;2023-01-15T08:14:50;11.87;;;7.30;;
12218;SDS011;6172;42.646;23.344;2023-01-15T08:17:36;13.60;;;7.60;;
12218;SDS011;6172;42.646;23.344;2023-01-15T08:20:04;13.93;;;8.20;;
12218;SDS011;6172;42.646;23.344;2023-01-15T08:22:34;16.63;;;8.53;;
12218;SDS011;6172;42.646;23.344;2023-01-15T08:25:04;18.83;;;8.73;;
12218;SDS011;6172;42.646;23.344;2023-01-15T08:27:32;13.53;;;8.47;;
12218;SDS011;6172;42.646;23.344;2023-01-15T08:30:00;17.57;;;8.90;;
12218;SDS011;6172;42.646;23.344;2023-01-15T08:32:27;14.07;;;8.40;;
12218;SDS011;6172;42.646;23.344;2023-01-15T08:34:54;15.40;;;8.73;;
12218;SDS011;6172;42.646;23.344;2023-01-15T08:37:21;13.57;;;8.43;;
12218;SDS011;6172;42.646;23.344;2023-01-15T08:39:48;15.77;;;9.00;;
12218;SDS011;6172;42.646;23.344;2023-01-15T08:42:19;14.10;;;8.10;;
12218;SDS011;6172;42.646;23.344;2023-01-15T08:44:46;15.97;;;9.10;;
12218;SDS011;6172;42.646;23.344;2023-01-15T08:47:14;13.10;;;8.17;;
12218;SDS011;6172;42.646;23.344;2023-01-15T08:49:41;15.63;;;8.60;;
12218;SDS011;6172;42.646;23.344;2023-01-15T08:52:09;12.93;;;8.13;;
12218;SDS011;6172;42.646;23.344;2023-01-15T08:54:39;13.77;;;7.83;;
12218;SDS011;6172;42.646;23.344;2023-01-15T08:57:05;13.60;;;8.00;;
12218;SDS011;6172;42.646;23.344;2023-01-15T08:59:37;14.87;;;8.60;;
12218;SDS011;6172;42.646;23.344;2023-01-15T09:02:08;15.23;;;8.20;;
12218;SDS011;6172;42.646;23.344;2023-01-15T09:04:38;15.17;;;9.10;;
12218;SDS011;6172;42.646;23.344;2023-01-15T09:07:05;19.00;;;9.90;;
12218;SDS011;6172;42.646;23.344;2023-01-15T09:09:32;16.83;;;9.50;;
12218;SDS011;6172;42.646;23.344;2023-01-15T09:11:59;15.83;;;9.43;;
12218;SDS011;6172;42.646;23.344;2023-01-15T09:14:26;16.67;;;9.67;;
12218;SDS011;6172;42.646;23.344;2023-01-15T09:16:55;19.00;;;10.03;;
12218;SDS011;6172;42.646;23.344;2023-01-15T09:19:22;19.83;;;10.07;;
12218;SDS011;6172;42.646;23.344;2023-01-15T09:21:49;20.23;;;10.73;;
12218;SDS011;6172;42.646;23.344;2023-01-15T09:24:16;21.13;;;11.40;;
12218;SDS011;6172;42.646;23.344;2023-01-15T09:26:43;23.47;;;11.80;;
12218;SDS011;6172;42.646;23.344;2023-01-15T09:29:11;19.23;;;11.27;;
12218;SDS011;6172;42.646;23.344;2023-01-15T09:31:38;19.30;;;10.90;;
12218;SDS011;6172;42.646;23.344;2023-01-15T09:34:07;20.87;;;11.63;;
12218;SDS011;6172;42.646;23.344;2023-01-15T09:36:34;22.53;;;12.50;;
12218;SDS011;6172;42.646;23.344;2023-01-15T09:39:03;21.63;;;12.50;;
12218;SDS011;6172;42.646;23.344;2023-01-15T09:41:36;26.50;;;14.80;;
12218;SDS011;6172;42.646;23.344;2023-01-15T09:44:43;21.50;;;12.30;;
12218;SDS011;6172;42.646;23.344;2023-01-15T09:47:26;25.47;;;12.17;;
12218;SDS011;6172;42.646;23.344;2023-01-15T09:50:13;19.83;;;11.77;;
12218;SDS011;6172;42.646;23.344;2023-01-15T09:52:56;19.63;;;11.40;;
12218;SDS011;6172;42.646;23.344;2023-01-15T09:55:48;20.03;;;10.87;;
12218;SDS011;6172;42.646;23.344;2023-01-15T09:58:17;17.23;;;10.80;;
12218;SDS011;6172;42.646;23.344;2023-01-15T10:00:49;19.53;;;11.27;;
12218;SDS011;6172;42.646;23.344;2023-01-15T10:03:22;20.33;;;11.33;;
12218;SDS011;6172;42.646;23.344;2023-01-15T10:06:02;22.43;;;11.43;;
12218;SDS011;6172;42.646;23.344;2023-01-15T10:08:35;17.87;;;9.90;;
12218;SDS011;6172;42.646;23.344;2023-01-15T10:11:10;19.03;;;11.30;;
12218;SDS011;6172;42.646;23.344;2023-01-15T10:14:20;18.53;;;11.77;;
12218;SDS011;6172;42.646;23.344;2023-01-15T10:17:05;18.97;;;9.97;;
12218;SDS011;6172;42.646;23.344;2023-01-15T10:19:45;22.70;;;10.53;;
12218;SDS011;6172;42.646;23.344;2023-01-15T10:25:13;18.53;;;10.97;;
12218;SDS011;6172;42.646;23.344;2023-01-15T10:27:43;19.80;;;11.37;;
12218;SDS011;6172;42.646;23.344;2023-01-15T10:30:21;24.90;;;12.50;;
12218;SDS011;6172;42.646;23.344;2023-01-15T10:32:58;23.33;;;12.27;;
12218;SDS011;6172;42.646;23.344;2023-01-15T10:35:39;23.43;;;12.37;;
12218;SDS011;6172;42.646;23.344;2023-01-15T10:38:11;23.10;;;12.77;;
12218;SDS011;6172;42.646;23.344;2023-01-15T10:43:58;21.67;;;11.00;;
12218;SDS011;6172;42.646;23.344;2023-01-15T10:46:34;19.47;;;11.43;;
12218;SDS011;6172;42.646;23.344;2023-01-15T10:49:10;22.30;;;11.60;;
12218;SDS011;6172;42.646;23.344;2023-01-15T10:51:41;23.63;;;11.27;;
12218;SDS011;6172;42.646;23.344;2023-01-15T10:54:13;20.47;;;10.27;;
12218;SDS011;6172;42.646;23.344;2023-01-15T10:56:46;18.17;;;10.07;;
12218;SDS011;6172;42.646;23.344;2023-01-15T10:59:23;14.93;;;8.60;;
12218;SDS011;6172;42.646;23.344;2023-01-15T11:02:00;17.00;;;9.60;;
12218;SDS011;6172;42.646;23.344;2023-01-15T11:04:31;17.70;;;8.97;;
12218;SDS011;6172;42.646;23.344;2023-01-15T11:06:58;15.37;;;8.87;;
12218;SDS011;6172;42.646;23.344;2023-01-15T11:09:33;20.43;;;10.33;;
12218;SDS011;6172;42.646;23.344;2023-01-15T11:12:04;16.70;;;8.83;;
12218;SDS011;6172;42.646;23.344;2023-01-15T11:15:01;16.33;;;8.90;;
12218;SDS011;6172;42.646;23.344;2023-01-15T11:17:57;16.57;;;9.87;;
12218;SDS011;6172;42.646;23.344;2023-01-15T11:20:44;17.57;;;9.20;;
12218;SDS011;6172;42.646;23.344;2023-01-15T11:23:18;15.50;;;7.87;;
12218;SDS011;6172;42.646;23.344;2023-01-15T11:25:52;13.83;;;9.27;;
12218;SDS011;6172;42.646;23.344;2023-01-15T11:28:29;14.40;;;8.57;;
12218;SDS011;6172;42.646;23.344;2023-01-15T11:31:01;15.03;;;8.07;;
12218;SDS011;6172;42.646;23.344;2023-01-15T11:33:29;16.03;;;8.07;;
12218;SDS011;6172;42.646;23.344;2023-01-15T11:35:58;14.13;;;8.30;;
12218;SDS011;6172;42.646;23.344;2023-01-15T11:38:41;12.90;;;7.73;;
12218;SDS011;6172;42.646;23.344;2023-01-15T11:41:18;11.70;;;7.60;;
12218;SDS011;6172;42.646;23.344;2023-01-15T11:43:54;13.90;;;8.17;;
12218;SDS011;6172;42.646;23.344;2023-01-15T11:46:53;10.90;;;6.60;;
12218;SDS011;6172;42.646;23.344;2023-01-15T11:49:43;15.40;;;7.00;;
12218;SDS011;6172;42.646;23.344;2023-01-15T11:52:33;13.67;;;7.50;;
12218;SDS011;6172;42.646;23.344;2023-01-15T11:55:10;13.23;;;6.70;;
12218;SDS011;6172;42.646;23.344;2023-01-15T11:57:43;12.63;;;7.60;;
12218;SDS011;6172;42.646;23.344;2023-01-15T12:00:21;12.77;;;7.57;;
12218;SDS011;6172;42.646;23.344;2023-01-15T12:02:58;11.30;;;6.80;;
12218;SDS011;6172;42.646;23.344;2023-01-15T12:05:30;10.40;;;7.00;;
12218;SDS011;6172;42.646;23.344;2023-01-15T12:08:00;10.87;;;6.43;;
12218;SDS011;6172;42.646;23.344;2023-01-15T12:10:30;9.30;;;6.17;;
12218;SDS011;6172;42.646;23.344;2023-01-15T12:13:21;9.60;;;5.57;;
12218;SDS011;6172;42.646;23.344;2023-01-15T12:16:02;8.27;;;5.63;;
12218;SDS011;6172;42.646;23.344;2023-01-15T12:19:04;8.50;;;5.37;;
12218;SDS011;6172;42.646;23.344;2023-01-15T12:21:52;10.90;;;6.40;;
12218;SDS011;6172;42.646;23.344;2023-01-15T12:24:56;9.27;;;5.57;;
12218;SDS011;6172;42.646;23.344;2023-01-15T12:27:40;9.53;;;6.20;;
12218;SDS011;6172;42.646;23.344;2023-01-15T12:30:24;8.03;;;5.57;;
12218;SDS011;6172;42.646;23.344;2023-01-15T12:33:12;8.53;;;5.70;;
12218;SDS011;6172;42.646;23.344;2023-01-15T12:35:49;7.57;;;5.33;;
12218;SDS011;6172;42.646;23.344;2023-01-15T12:38:27;8.63;;;5.80;;
12218;SDS011;6172;42.646;23.344;2023-01-15T12:41:05;8.50;;;5.73;;
12218;SDS011;6172;42.646;23.344;2023-01-15T12:43:36;8.17;;;5.47;;
12218;SDS011;6172;42.646;23.344;2023-01-15T12:46:23;6.83;;;5.13;;
12218;SDS011;6172;42.646;23.344;2023-01-15T12:49:02;11.03;;;6.00;;
12218;SDS011;6172;42.646;23.344;2023-01-15T12:51:39;8.90;;;5.27;;
12218;SDS011;6172;42.646;23.344;2023-01-15T12:54:18;9.50;;;5.00;;
12218;SDS011;6172;42.646;23.344;2023-01-15T12:56:56;8.60;;;5.37;;
12218;SDS011;6172;42.646;23.344;2023-01-15T12:59:32;7.57;;;5.30;;
12218;SDS011;6172;42.646;23.344;2023-01-15T13:02:10;7.60;;;5.10;;
12218;SDS011;6172;42.646;23.344;2023-01-15T13:04:45;9.53;;;4.80;;
12218;SDS011;6172;42.646;23.344;2023-01-15T13:07:23;9.70;;;5.50;;
12218;SDS011;6172;42.646;23.344;2023-01-15T13:09:57;9.67;;;5.30;;
12218;SDS011;6172;42.646;23.344;2023-01-15T13:12:33;7.30;;;4.60;;
12218;SDS011;6172;42.646;23.344;2023-01-15T13:15:03;6.60;;;4.70;;
12218;SDS011;6172;42.646;23.344;2023-01-15T13:17:32;9.07;;;5.60;;
12218;SDS011;6172;42.646;23.344;2023-01-15T13:20:22;10.00;;;5.13;;
12218;SDS011;6172;42.646;23.344;2023-01-15T13:23:02;8.80;;;5.57;;
12218;SDS011;6172;42.646;23.344;2023-01-15T13:25:46;10.53;;;6.03;;
12218;SDS011;6172;42.646;23.344;2023-01-15T13:28:31;9.20;;;5.90;;
12218;SDS011;6172;42.646;23.344;2023-01-15T13:31:16;10.17;;;6.13;;
12218;SDS011;6172;42.646;23.344;2023-01-15T13:33:59;11.33;;;6.00;;
12218;SDS011;6172;42.646;23.344;2023-01-15T13:36:33;11.73;;;6.00;;
12218;SDS011;6172;42.646;23.344;2023-01-15T13:39:10;10.37;;;7.03;;
12218;SDS011;6172;42.646;23.344;2023-01-15T13:41:45;9.87;;;5.80;;
12218;SDS011;6172;42.646;23.344;2023-01-15T13:44:33;8.40;;;5.27;;
12218;SDS011;6172;42.646;23.344;2023-01-15T13:47:07;10.30;;;6.10;;
12218;SDS011;6172;42.646;23.344;2023-01-15T13:49:37;8.80;;;6.30;;
12218;SDS011;6172;42.646;23.344;2023-01-15T13:52:07;10.63;;;6.83;;
12218;SDS011;6172;42.646;23.344;2023-01-15T13:54:52;11.23;;;6.73;;
12218;SDS011;6172;42.646;23.344;2023-01-15T13:57:25;8.80;;;6.63;;
12218;SDS011;6172;42.646;23.344;2023-01-15T13:59:59;8.90;;;5.13;;
12218;SDS011;6172;42.646;23.344;2023-01-15T14:02:28;8.97;;;6.10;;
12218;SDS011;6172;42.646;23.344;2023-01-15T14:04:57;13.83;;;6.37;;
12218;SDS011;6172;42.646;23.344;2023-01-15T14:07:32;9.30;;;5.90;;
12218;SDS011;6172;42.646;23.344;2023-01-15T14:10:22;11.53;;;5.73;;
12218;SDS011;6172;42.646;23.344;2023-01-15T14:13:00;10.77;;;6.07;;
12218;SDS011;6172;42.646;23.344;2023-01-15T14:15:45;9.97;;;6.43;;
12218;SDS011;6172;42.646;23.344;2023-01-15T14:18:24;14.07;;;7.17;;
12218;SDS011;6172;42.646;23.344;2023-01-15T14:24:01;9.30;;;5.97;;
12218;SDS011;6172;42.646;23.344;2023-01-15T14:26:44;12.67;;;6.53;;
12218;SDS011;6172;42.646;23.344;2023-01-15T14:29:36;10.73;;;5.87;;
12218;SDS011;6172;42.646;23.344;2023-01-15T14:32:30;11.00;;;6.50;;
12218;SDS011;6172;42.646;23.344;2023-01-15T14:35:11;11.40;;;6.70;;
12218;SDS011;6172;42.646;23.344;2023-01-15T14:37:44;14.20;;;7.10;;
12218;SDS011;6172;42.646;23.344;2023-01-15T14:40:21;11.77;;;6.10;;
12218;SDS011;6172;42.646;23.344;2023-01-15T14:42:53;10.23;;;6.90;;
12218;SDS011;6172;42.646;23.344;2023-01-15T14:45:33;11.47;;;7.20;;
12218;SDS011;6172;42.646;23.344;2023-01-15T14:48:03;12.60;;;7.33;;
12218;SDS011;6172;42.646;23.344;2023-01-15T14:50:33;12.27;;;7.20;;
12218;SDS011;6172;42.646;23.344;2023-01-15T14:53:05;14.50;;;7.27;;
12218;SDS011;6172;42.646;23.344;2023-01-15T14:55:45;12.30;;;7.50;;
12218;SDS011;6172;42.646;23.344;2023-01-15T14:58:22;12.93;;;7.93;;
12218;SDS011;6172;42.646;23.344;2023-01-15T15:01:01;13.43;;;8.30;;
12218;SDS011;6172;42.646;23.344;2023-01-15T15:03:38;15.17;;;9.10;;
12218;SDS011;6172;42.646;23.344;2023-01-15T15:06:11;13.57;;;8.73;;
12218;SDS011;6172;42.646;23.344;2023-01-15T15:08:40;16.37;;;8.93;;
12218;SDS011;6172;42.646;23.344;2023-01-15T15:11:12;17.20;;;9.77;;
12218;SDS011;6172;42.646;23.344;2023-01-15T15:14:00;17.47;;;8.73;;
12218;SDS011;6172;42.646;23.344;2023-01-15T15:16:33;15.10;;;8.50;;
12218;SDS011;6172;42.646;23.344;2023-01-15T15:19:10;11.87;;;8.03;;